Matanuska — WN4201 — position and weather

sailwx.info

Track history (hours):
 
Tides and Currents Weather Stations Pressure Air Temp Water Temp Dewpoint Dewpoint Depression Visibility Wind Speed Wind Dir Waves Ship Positions

Matanuska

Owner: ALASKA MARINE HIGHWAY SYSTEM DEPARTMENT OF TRANSPORTATION, Anchorage, AK. More information available from US FCC via Universal Licensing System and Coast Guard Vessel Documentation Center.

Last reported at 2020-Aug-08 23:29 UTC. Time now 2020-Aug-09 05:51 UTC.
Position N 52°18' W 128°32'.

Type: Passenger vessel. MMSI: 338195000.

Date/timePositionNaut miles runAvg speedWind from/ knotsBaromVisibWave heightAir tempDewpointWater temp
2020-Aug-08 23:29N 52°18' W 128°32'1414.3
2020-Aug-08 22:30N 52°13' W 128°10'9 9.0
2020-Aug-08 21:30N 52°05' W 128°06'5814.4
2020-Aug-08 17:30N 51°08' W 127°48'5016.6
2020-Aug-08 14:30N 50°37' W 126°46'4815.7
2020-Aug-08 11:25N 50°22' W 125°34'615.0
2020-Aug-08 11:00N 50°19' W 125°25'2315.5
2020-Aug-08 09:30N 49°58' W 125°10'816.2
2020-Aug-08 09:00N 49°53' W 125°01'1716.9
2020-Aug-08 08:00N 49°41' W 124°43'5016.6
2020-Aug-08 05:01N 49°14' W 123°38'1716.7
2020-Aug-08 04:01N 49°03' W 123°19'816.2
2020-Aug-08 03:31N 48°57' W 123°10'816.4
2020-Aug-08 03:01N 48°52' W 123°00'2110.5
2020-Aug-08 00:58N 48°43' W 122°31'0 0.0
2020-Aug-07 23:58N 48°43' W 122°31'0 0.0
2020-Aug-07 21:58N 48°43' W 122°31'0 0.0
2020-Aug-07 19:28N 48°43' W 122°31'0 0.0
2020-Aug-07 17:10N 48°43' W 122°31'0 0.0
2020-Aug-07 16:28N 48°43' W 122°31'7 3.0
2020-Aug-07 14:00N 48°37' W 122°37'1313.0
2020-Aug-07 13:00N 48°47' W 122°51'714.9
2020-Aug-07 12:30N 48°51' W 123°01'2813.9
2020-Aug-07 10:30N 49°09' W 123°32'612.1
2020-Aug-07 10:00N 49°14' W 123°38'4713.5
2020-Aug-07 06:30N 49°39' W 124°40'2113.7
2020-Aug-07 05:00N 49°54' W 125°03'714.6
2020-Aug-07 04:30N 49°59' W 125°11'611.7
2020-Aug-07 04:00N 50°04' W 125°15'611.4
2020-Aug-07 03:30N 50°08' W 125°21'7115.7
2020-Aug-06 23:00N 50°43' W 126°58'2617.5
2020-Aug-06 21:30N 50°58' W 127°32'2114.1
2020-Aug-06 20:00N 51°13' W 127°56'5714.3
2020-Aug-06 16:00N 52°10' W 128°08'3011.5
2020-Aug-06 13:23N 52°37' W 128°29'11015.0
2020-Aug-06 06:00N 54°05' W 130°19'815.9
2020-Aug-06 05:30N 54°12' W 130°28'1616.2
2020-Aug-06 04:30N 54°27' W 130°38'816.6
2020-Aug-06 04:00N 54°35' W 130°40'  
2020-Aug-02 06:31N 54°05' W 130°18'2415.8
2020-Aug-02 05:00N 53°46' W 129°53'9314.4
2020-Aug-01 22:30N 52°28' W 128°27'8012.3
2020-Aug-01 16:01N 51°11' W 127°50'10415.8
2020-Aug-01 09:26N 50°20' W 125°27'5814.7
2020-Aug-01 05:30N 49°34' W 124°33'3915.7
2020-Aug-01 03:00N 49°16' W 123°40'816.5
2020-Aug-01 02:30N 49°10' W 123°31'3316.3
2020-Aug-01 00:30N 48°49' W 122°54'917.1
2020-Aug-01 00:00N 48°43' W 122°44'9 3.3
2020-Jul-31 21:22N 48°43' W 122°31'0 0.0
2020-Jul-31 17:58N 48°43' W 122°31'0 0.0
2020-Jul-31 15:28N 48°43' W 122°31'14 4.1
2020-Jul-31 12:00N 48°46' W 122°51'3316.6
2020-Jul-31 10:00N 49°08' W 123°30'5816.5
2020-Jul-31 06:30N 49°41' W 124°43'917.5
2020-Jul-31 06:00N 49°47' W 124°52'1716.8
2020-Jul-31 05:01N 49°59' W 125°11'1312.8
2020-Jul-31 04:01N 50°10' W 125°22'9613.8
2020-Jul-30 21:05N 50°58' W 127°31'914.7
2020-Jul-30 20:30N 51°04' W 127°42'1414.3
2020-Jul-30 19:30N 51°16' W 127°52'7412.4
2020-Jul-30 13:31N 52°27' W 128°28'11715.6
2020-Jul-30 06:00N 54°04' W 130°17'3316.6
2020-Jul-30 04:00N 54°34' W 130°43'  
Track history (hours):
 
Tides and Currents Weather Stations Pressure Air Temp Water Temp Dewpoint Dewpoint Depression Visibility Wind Speed Wind Dir Waves Ship Positions

Matanuska

Owner: ALASKA MARINE HIGHWAY SYSTEM DEPARTMENT OF TRANSPORTATION, Anchorage, AK. More information available from US FCC via Universal Licensing System and Coast Guard Vessel Documentation Center.

Last reported at 2020-Aug-08 23:29 UTC. Time now 2020-Aug-09 05:51 UTC.
Position N 52°18' W 128°32'.

Type: Passenger vessel. MMSI: 338195000.

Date/timePositionNaut miles runAvg speedWind from/ knotsBaromVisibWave heightAir tempDewpointWater temp
2020-Aug-08 23:29N 52°18' W 128°32'1414.3
2020-Aug-08 22:30N 52°13' W 128°10'9 9.0
2020-Aug-08 21:30N 52°05' W 128°06'5814.4
2020-Aug-08 17:30N 51°08' W 127°48'5016.6
2020-Aug-08 14:30N 50°37' W 126°46'4815.7
2020-Aug-08 11:25N 50°22' W 125°34'615.0
2020-Aug-08 11:00N 50°19' W 125°25'2315.5
2020-Aug-08 09:30N 49°58' W 125°10'816.2
2020-Aug-08 09:00N 49°53' W 125°01'1716.9
2020-Aug-08 08:00N 49°41' W 124°43'5016.6
2020-Aug-08 05:01N 49°14' W 123°38'1716.7
2020-Aug-08 04:01N 49°03' W 123°19'816.2
2020-Aug-08 03:31N 48°57' W 123°10'816.4
2020-Aug-08 03:01N 48°52' W 123°00'2110.5
2020-Aug-08 00:58N 48°43' W 122°31'0 0.0
2020-Aug-07 23:58N 48°43' W 122°31'0 0.0
2020-Aug-07 21:58N 48°43' W 122°31'0 0.0
2020-Aug-07 19:28N 48°43' W 122°31'0 0.0
2020-Aug-07 17:10N 48°43' W 122°31'0 0.0
2020-Aug-07 16:28N 48°43' W 122°31'7 3.0
2020-Aug-07 14:00N 48°37' W 122°37'1313.0
2020-Aug-07 13:00N 48°47' W 122°51'714.9
2020-Aug-07 12:30N 48°51' W 123°01'2813.9
2020-Aug-07 10:30N 49°09' W 123°32'612.1
2020-Aug-07 10:00N 49°14' W 123°38'4713.5
2020-Aug-07 06:30N 49°39' W 124°40'2113.7
2020-Aug-07 05:00N 49°54' W 125°03'714.6
2020-Aug-07 04:30N 49°59' W 125°11'611.7
2020-Aug-07 04:00N 50°04' W 125°15'611.4
2020-Aug-07 03:30N 50°08' W 125°21'7115.7
2020-Aug-06 23:00N 50°43' W 126°58'2617.5
2020-Aug-06 21:30N 50°58' W 127°32'2114.1
2020-Aug-06 20:00N 51°13' W 127°56'5714.3
2020-Aug-06 16:00N 52°10' W 128°08'3011.5
2020-Aug-06 13:23N 52°37' W 128°29'11015.0
2020-Aug-06 06:00N 54°05' W 130°19'815.9
2020-Aug-06 05:30N 54°12' W 130°28'1616.2
2020-Aug-06 04:30N 54°27' W 130°38'816.6
2020-Aug-06 04:00N 54°35' W 130°40'  
2020-Aug-02 06:31N 54°05' W 130°18'2415.8
2020-Aug-02 05:00N 53°46' W 129°53'9314.4
2020-Aug-01 22:30N 52°28' W 128°27'8012.3
2020-Aug-01 16:01N 51°11' W 127°50'10415.8
2020-Aug-01 09:26N 50°20' W 125°27'5814.7
2020-Aug-01 05:30N 49°34' W 124°33'3915.7
2020-Aug-01 03:00N 49°16' W 123°40'816.5
2020-Aug-01 02:30N 49°10' W 123°31'3316.3
2020-Aug-01 00:30N 48°49' W 122°54'917.1
2020-Aug-01 00:00N 48°43' W 122°44'9 3.3
2020-Jul-31 21:22N 48°43' W 122°31'0 0.0
2020-Jul-31 17:58N 48°43' W 122°31'0 0.0
2020-Jul-31 15:28N 48°43' W 122°31'14 4.1
2020-Jul-31 12:00N 48°46' W 122°51'3316.6
2020-Jul-31 10:00N 49°08' W 123°30'5816.5
2020-Jul-31 06:30N 49°41' W 124°43'917.5
2020-Jul-31 06:00N 49°47' W 124°52'1716.8
2020-Jul-31 05:01N 49°59' W 125°11'1312.8
2020-Jul-31 04:01N 50°10' W 125°22'9613.8
2020-Jul-30 21:05N 50°58' W 127°31'914.7
2020-Jul-30 20:30N 51°04' W 127°42'1414.3
2020-Jul-30 19:30N 51°16' W 127°52'7412.4
2020-Jul-30 13:31N 52°27' W 128°28'11715.6
2020-Jul-30 06:00N 54°04' W 130°17'3316.6
2020-Jul-30 04:00N 54°34' W 130°43'  

Dump ship's entire track history